createdAt,value
2023-03-04T00:00:33.264Z,99707.91
2023-03-04T00:03:01.547Z,99709.22
2023-03-04T00:05:31.266Z,99711.06
2023-03-04T00:07:58.725Z,99709.31
2023-03-04T00:10:26.596Z,99713.69
2023-03-04T00:12:54.144Z,99717.13
2023-03-04T00:15:24.216Z,99713.06
2023-03-04T00:17:51.720Z,99705.78
2023-03-04T00:20:19.201Z,99705.25
2023-03-04T00:22:47.995Z,99704.16
2023-03-04T00:25:16.147Z,99702.06
2023-03-04T00:27:44.885Z,99699.75
2023-03-04T00:30:12.707Z,99702.34
2023-03-04T00:32:40.251Z,99692.22
2023-03-04T00:35:08.528Z,99699.56
2023-03-04T00:37:36.069Z,99709.38
2023-03-04T00:40:04.264Z,99712.03
2023-03-04T00:42:32.810Z,99710.25
2023-03-04T00:45:00.259Z,99702.47
2023-03-04T00:47:27.758Z,99703.81
2023-03-04T00:49:55.280Z,99697.06
2023-03-04T00:52:22.757Z,99704.88
2023-03-04T00:54:50.262Z,99691.88
2023-03-04T00:57:17.970Z,99691.84
2023-03-04T00:59:46.387Z,99692.41
2023-03-04T01:02:14.127Z,99695.00
2023-03-04T01:04:41.950Z,99699.69
2023-03-04T01:07:10.028Z,99701.75
2023-03-04T01:09:37.531Z,99702.00
2023-03-04T01:12:05.304Z,99702.00
2023-03-04T01:14:32.858Z,99703.31
2023-03-04T01:17:00.318Z,99699.16
2023-03-04T01:19:27.899Z,99693.72
2023-03-04T01:21:55.359Z,99691.63
2023-03-04T01:24:22.908Z,99701.25
2023-03-04T01:26:50.349Z,99693.97
2023-03-04T01:29:17.792Z,99695.53
2023-03-04T01:31:45.198Z,99685.66
2023-03-04T01:34:13.449Z,99682.78
2023-03-04T01:36:40.892Z,99683.56
2023-03-04T01:39:08.396Z,99680.47
2023-03-04T01:41:35.901Z,99683.06
2023-03-04T01:44:03.965Z,99686.41
2023-03-04T01:46:32.536Z,99678.91
2023-03-04T01:49:00.883Z,99673.97
2023-03-04T01:51:28.495Z,99671.13
2023-03-04T01:53:56.182Z,99669.03
2023-03-04T01:56:46.198Z,99669.81
2023-03-04T01:59:23.679Z,99669.28
2023-03-04T02:01:56.280Z,99673.44
2023-03-04T02:04:31.817Z,99674.22
2023-03-04T02:07:01.052Z,99679.78
2023-03-04T02:09:30.936Z,99676.88
2023-03-04T02:11:58.913Z,99670.97
2023-03-04T02:14:27.730Z,99682.47
2023-03-04T02:16:55.276Z,99693.41
2023-03-04T02:19:39.935Z,99683.06
2023-03-04T02:22:07.804Z,99680.47
2023-03-04T02:24:50.511Z,99673.72
2023-03-04T02:27:18.727Z,99681.50
2023-03-04T02:29:47.522Z,99678.66
2023-03-04T02:32:15.372Z,99687.19
2023-03-04T02:34:52.205Z,99690.31
2023-03-04T02:37:22.519Z,99680.19
2023-03-04T02:39:53.554Z,99673.19
2023-03-04T02:42:21.085Z,99675.28
2023-03-04T02:44:50.536Z,99668.28
2023-03-04T02:47:20.496Z,99660.22
2023-03-04T02:49:49.804Z,99661.25
2023-03-04T02:52:25.533Z,99657.38
2023-03-04T02:54:53.195Z,99657.38
2023-03-04T02:57:21.786Z,99658.91
2023-03-04T02:59:53.624Z,99656.06
2023-03-04T03:02:24.264Z,99652.44
2023-03-04T03:04:52.017Z,99651.38
2023-03-04T03:07:21.099Z,99660.22
2023-03-04T03:09:52.209Z,99658.16
2023-03-04T03:12:20.339Z,99661.25
2023-03-04T03:14:47.848Z,99664.63
2023-03-04T03:17:18.786Z,99677.09
2023-03-04T03:19:47.835Z,99671.63
2023-03-04T03:22:16.506Z,99678.09
2023-03-04T03:24:44.176Z,99679.94
2023-03-04T03:27:11.653Z,99681.78
2023-03-04T03:29:39.407Z,99685.63
2023-03-04T03:32:09.038Z,99685.63
2023-03-04T03:34:36.572Z,99689.00
2023-03-04T03:37:04.305Z,99688.75
2023-03-04T03:39:31.812Z,99687.44
2023-03-04T03:41:59.328Z,99684.88
2023-03-04T03:44:26.827Z,99686.66
2023-03-04T03:46:54.301Z,99688.72
2023-03-04T03:49:21.783Z,99684.84
2023-03-04T03:51:49.303Z,99687.44
2023-03-04T03:54:16.736Z,99673.94
2023-03-04T03:56:44.257Z,99672.66
2023-03-04T03:59:11.712Z,99670.84
2023-03-04T04:01:39.231Z,99672.41
2023-03-04T04:04:06.711Z,99672.16
2023-03-04T04:06:34.197Z,99671.38
2023-03-04T04:09:01.633Z,99667.75
2023-03-04T04:11:29.191Z,99673.72
2023-03-04T04:13:56.687Z,99675.78
2023-03-04T04:16:24.251Z,99670.84
2023-03-04T04:18:51.763Z,99675.00
2023-03-04T04:21:19.280Z,99672.66
2023-03-04T04:23:46.774Z,99678.88
2023-03-04T04:26:16.617Z,99678.34
2023-03-04T04:28:44.199Z,99677.28
2023-03-04T04:31:11.664Z,99678.09
2023-03-04T04:33:39.291Z,99680.94
2023-03-04T04:36:07.406Z,99678.13
2023-03-04T04:38:34.978Z,99679.66
2023-03-04T04:41:02.473Z,99690.06
2023-03-04T04:43:29.988Z,99693.41
2023-03-04T04:46:01.272Z,99690.03
2023-03-04T04:48:28.714Z,99690.56
2023-03-04T04:50:57.282Z,99697.03
2023-03-04T04:53:24.808Z,99701.38
2023-03-04T04:55:52.303Z,99705.81
2023-03-04T04:58:19.821Z,99708.94
2023-03-04T05:00:47.400Z,99712.78
2023-03-04T05:03:18.581Z,99710.47
2023-03-04T05:05:46.320Z,99706.31
2023-03-04T05:08:13.825Z,99702.66
2023-03-04T05:10:41.272Z,99711.00
2023-03-04T05:13:08.751Z,99708.44
2023-03-04T05:15:39.028Z,99703.22
2023-03-04T05:18:06.917Z,99695.94
2023-03-04T05:20:34.393Z,99699.56
2023-03-04T05:23:01.922Z,99706.06
2023-03-04T05:25:29.698Z,99704.25
2023-03-04T05:27:57.198Z,99704.75
2023-03-04T05:30:24.727Z,99711.53
2023-03-04T05:32:52.174Z,99704.81
2023-03-04T05:35:21.330Z,99709.47
2023-03-04T05:37:48.872Z,99707.66
2023-03-04T05:40:16.383Z,99706.63
2023-03-04T05:42:43.950Z,99714.44
2023-03-04T05:45:11.917Z,99709.00
2023-03-04T05:47:39.517Z,99708.00
2023-03-04T05:50:07.750Z,99703.31
2023-03-04T05:52:35.352Z,99713.44
2023-03-04T05:55:03.034Z,99714.22
2023-03-04T05:57:32.424Z,99720.72
2023-03-04T06:00:00.120Z,99721.75
2023-03-04T06:02:27.672Z,99717.56
2023-03-04T06:04:55.179Z,99715.50
2023-03-04T06:07:22.751Z,99709.78
2023-03-04T06:09:50.238Z,99719.63
2023-03-04T06:12:17.718Z,99732.91
2023-03-04T06:14:45.242Z,99727.19
2023-03-04T06:17:12.857Z,99728.72
2023-03-04T06:19:41.872Z,99720.13
2023-03-04T06:22:11.084Z,99720.88
2023-03-04T06:24:38.993Z,99730.25
2023-03-04T06:27:07.023Z,99733.84
2023-03-04T06:29:34.595Z,99746.84
2023-03-04T06:32:02.749Z,99740.88
2023-03-04T06:34:30.337Z,99735.44
2023-03-04T06:36:57.795Z,99746.28
2023-03-04T06:39:25.331Z,99746.53
2023-03-04T06:41:54.260Z,99735.81
2023-03-04T06:44:21.790Z,99735.56
2023-03-04T06:46:49.365Z,99738.13
2023-03-04T06:49:17.093Z,99739.91
2023-03-04T06:51:44.623Z,99755.50
2023-03-04T06:54:12.211Z,99765.03
2023-03-04T06:56:39.836Z,99763.81
2023-03-04T06:59:08.369Z,99766.34
2023-03-04T07:01:36.795Z,99763.09
2023-03-04T07:04:04.819Z,99767.63
2023-03-04T07:06:33.105Z,99774.31
2023-03-04T07:09:00.796Z,99772.06
2023-03-04T07:11:28.870Z,99763.72
2023-03-04T07:13:57.089Z,99760.38
2023-03-04T07:16:27.423Z,99765.66
2023-03-04T07:18:56.210Z,99762.00
2023-03-04T07:21:23.746Z,99763.47
2023-03-04T07:23:51.402Z,99760.97
2023-03-04T07:26:19.004Z,99745.56
2023-03-04T07:28:46.727Z,99748.75
2023-03-04T07:31:23.264Z,99758.28
2023-03-04T07:33:51.659Z,99753.47
2023-03-04T07:36:20.036Z,99754.31
2023-03-04T07:38:56.230Z,99755.31
2023-03-04T07:41:31.100Z,99759.13
2023-03-04T07:43:59.944Z,99747.84
2023-03-04T07:46:27.494Z,99748.53
2023-03-04T07:48:57.034Z,99752.03
2023-03-04T07:51:27.064Z,99759.38
2023-03-04T07:53:59.926Z,99753.75
2023-03-04T07:56:31.364Z,99753.84
2023-03-04T07:58:59.680Z,99755.63
2023-03-04T08:01:35.813Z,99755.06
2023-03-04T08:04:07.486Z,99750.22
2023-03-04T08:09:17.835Z,99745.75
2023-03-04T08:11:45.344Z,99752.09
2023-03-04T08:14:13.956Z,99744.28
2023-03-04T08:16:42.086Z,99746.69
2023-03-04T08:19:10.766Z,99743.59
2023-03-04T08:21:38.707Z,99746.16
2023-03-04T08:24:09.317Z,99745.13
2023-03-04T08:26:47.665Z,99740.88
2023-03-04T08:29:21.256Z,99740.44
2023-03-04T08:31:52.649Z,99739.91
2023-03-04T08:34:24.564Z,99739.25
2023-03-04T08:36:52.001Z,99737.22
2023-03-04T08:39:20.093Z,99740.50
2023-03-04T08:41:50.283Z,99738.47
2023-03-04T08:44:18.105Z,99737.84
2023-03-04T08:46:45.785Z,99736.78
2023-03-04T08:49:15.653Z,99743.91
2023-03-04T08:51:44.684Z,99744.59
2023-03-04T08:54:12.266Z,99749.03
2023-03-04T08:56:42.100Z,99749.66
2023-03-04T08:59:09.638Z,99755.38
2023-03-04T09:01:39.647Z,99754.91
2023-03-04T09:04:08.607Z,99753.34
2023-03-04T09:06:36.205Z,99758.19
2023-03-04T09:09:05.349Z,99751.56
2023-03-04T09:11:33.001Z,99745.50
2023-03-04T09:14:01.022Z,99746.16
2023-03-04T09:16:29.014Z,99741.81
2023-03-04T09:18:57.137Z,99743.28
2023-03-04T09:21:25.128Z,99742.25
2023-03-04T09:23:52.618Z,99738.72
2023-03-04T09:26:27.470Z,99738.47
2023-03-04T09:28:59.582Z,99733.66
2023-03-04T09:31:30.266Z,99730.91
2023-03-04T09:33:59.932Z,99732.06
2023-03-04T09:36:27.704Z,99731.34
2023-03-04T09:38:55.164Z,99720.25
2023-03-04T09:41:47.896Z,99720.09
2023-03-04T09:44:27.352Z,99719.56
2023-03-04T09:47:02.946Z,99705.19
2023-03-04T09:49:32.988Z,99709.66
2023-03-04T09:52:23.948Z,99699.59
2023-03-04T09:55:18.808Z,99694.84
2023-03-04T09:58:21.864Z,99701.06
2023-03-04T10:01:11.845Z,99699.63
2023-03-04T10:04:12.621Z,99690.13
2023-03-04T10:06:42.529Z,99688.66
2023-03-04T10:09:44.310Z,99686.72
2023-03-04T10:12:22.176Z,99681.56
2023-03-04T10:15:21.256Z,99685.28
2023-03-04T10:17:55.654Z,99683.84
2023-03-04T10:20:25.515Z,99683.03
2023-03-04T10:23:18.934Z,99687.25
2023-03-04T10:25:47.226Z,99681.06
2023-03-04T10:28:46.431Z,99671.53
2023-03-04T10:31:14.397Z,99676.03
2023-03-04T10:33:46.577Z,99679.38
2023-03-04T10:36:30.035Z,99677.44
2023-03-04T10:39:10.198Z,99662.38
2023-03-04T10:41:45.040Z,99659.88
2023-03-04T10:44:22.539Z,99658.63
2023-03-04T10:46:53.975Z,99647.00
2023-03-04T10:49:24.949Z,99650.00
2023-03-04T10:52:04.751Z,99658.75
2023-03-04T10:54:53.021Z,99645.50
2023-03-04T10:57:38.805Z,99638.44
2023-03-04T11:00:32.146Z,99635.59
2023-03-04T11:03:33.336Z,99625.56
2023-03-04T11:06:21.462Z,99623.16
2023-03-04T11:08:57.837Z,99618.63
2023-03-04T11:11:34.778Z,99613.91
2023-03-04T11:14:16.414Z,99610.22
2023-03-04T11:16:59.622Z,99595.25
2023-03-04T11:19:42.503Z,99594.31
2023-03-04T11:22:16.058Z,99598.66
2023-03-04T11:24:44.544Z,99589.38
2023-03-04T11:27:48.133Z,99576.50
2023-03-04T11:30:29.858Z,99575.63
2023-03-04T11:33:09.995Z,99578.13
2023-03-04T11:35:54.295Z,99576.56
2023-03-04T11:38:33.127Z,99566.38
2023-03-04T11:41:09.939Z,99569.31
2023-03-04T11:43:42.128Z,99561.88
2023-03-04T11:46:46.889Z,99566.03
2023-03-04T11:49:44.171Z,99554.59
2023-03-04T11:52:56.719Z,99558.63
2023-03-04T11:56:18.752Z,99557.25
2023-03-04T11:59:23.521Z,99550.16
2023-03-04T12:02:39.680Z,99554.16
2023-03-04T12:05:42.307Z,99557.22
2023-03-04T12:08:27.844Z,99544.53
2023-03-04T12:11:42.313Z,99545.22
2023-03-04T12:14:35.628Z,99541.91
2023-03-04T12:17:33.554Z,99533.91
2023-03-04T12:20:42.009Z,99536.69
2023-03-04T12:23:33.935Z,99537.78
2023-03-04T12:26:53.411Z,99528.00
2023-03-04T12:30:03.823Z,99520.81
2023-03-04T12:32:40.212Z,99521.31
2023-03-04T12:35:53.132Z,99516.06
2023-03-04T12:39:00.435Z,99505.31
2023-03-04T12:41:40.256Z,99515.03
2023-03-04T12:44:19.566Z,99506.72
2023-03-04T12:47:06.919Z,99502.88
2023-03-04T12:50:14.551Z,99499.53
2023-03-04T12:53:37.959Z,99502.72
2023-03-04T12:56:24.033Z,99500.97
2023-03-04T12:59:00.113Z,99499.28
2023-03-04T13:02:24.813Z,99485.84
2023-03-04T13:05:40.919Z,99485.06
2023-03-04T13:09:06.267Z,99481.31
2023-03-04T13:15:18.139Z,99469.66
2023-03-04T13:17:49.208Z,99465.53
2023-03-04T13:20:43.717Z,99464.19
2023-03-04T13:23:14.604Z,99464.84
2023-03-04T13:26:06.689Z,99463.06
2023-03-04T13:28:36.805Z,99454.28
2023-03-04T13:31:11.597Z,99462.75
2023-03-04T13:33:39.065Z,99456.06
2023-03-04T13:36:46.301Z,99452.81
2023-03-04T13:39:16.714Z,99445.59
2023-03-04T13:41:56.669Z,99440.38
2023-03-04T13:44:48.321Z,99439.66
2023-03-04T13:47:24.402Z,99438.13
2023-03-04T13:50:25.750Z,99431.94
2023-03-04T13:52:53.873Z,99434.16
2023-03-04T13:55:42.586Z,99429.38
2023-03-04T13:58:23.451Z,99426.88
2023-03-04T14:00:55.240Z,99430.00
2023-03-04T14:03:31.335Z,99422.75
2023-03-04T14:06:27.174Z,99423.25
2023-03-04T14:08:57.010Z,99416.38
2023-03-04T14:11:36.392Z,99405.03
2023-03-04T14:14:09.046Z,99414.59
2023-03-04T14:16:52.246Z,99411.75
2023-03-04T14:19:29.375Z,99415.59
2023-03-04T14:21:58.493Z,99412.50
2023-03-04T14:24:27.049Z,99411.50
2023-03-04T14:27:20.997Z,99401.06
2023-03-04T14:30:00.775Z,99405.03
2023-03-04T14:32:30.668Z,99396.16
2023-03-04T14:35:08.262Z,99403.81
2023-03-04T14:38:16.840Z,99392.69
2023-03-04T14:40:59.214Z,99390.75
2023-03-04T14:43:29.265Z,99387.66
2023-03-04T14:46:01.955Z,99389.34
2023-03-04T14:48:36.394Z,99387.00
2023-03-04T14:51:04.585Z,99382.53
2023-03-04T14:53:35.153Z,99383.88
2023-03-04T14:56:30.228Z,99374.00
2023-03-04T14:58:59.780Z,99366.44
2023-03-04T15:01:41.315Z,99367.47
2023-03-04T15:04:14.124Z,99365.31
2023-03-04T15:06:53.977Z,99355.03
2023-03-04T15:09:27.142Z,99351.97
2023-03-04T15:12:07.066Z,99355.88
2023-03-04T15:14:46.914Z,99345.88
2023-03-04T15:17:41.623Z,99351.97
2023-03-04T15:20:10.217Z,99353.63
2023-03-04T15:22:44.640Z,99352.53
2023-03-04T15:25:20.366Z,99348.94
2023-03-04T15:27:49.964Z,99344.66
2023-03-04T15:30:35.712Z,99339.41
2023-03-04T15:33:03.319Z,99338.72
2023-03-04T15:35:33.495Z,99336.59
2023-03-04T15:38:01.716Z,99332.19
2023-03-04T15:40:39.172Z,99327.66
2023-03-04T15:43:12.375Z,99323.66
2023-03-04T15:45:40.703Z,99319.28
2023-03-04T15:48:14.045Z,99314.25
2023-03-04T15:50:57.200Z,99315.09
2023-03-04T15:53:34.471Z,99320.34
2023-03-04T15:56:05.861Z,99322.75
2023-03-04T15:58:35.159Z,99314.44
2023-03-04T16:01:08.768Z,99320.84
2023-03-04T16:03:36.818Z,99314.16
2023-03-04T16:06:16.175Z,99320.06
2023-03-04T16:08:44.939Z,99323.19
2023-03-04T16:11:22.571Z,99322.84
2023-03-04T16:13:50.940Z,99330.16
2023-03-04T16:16:21.189Z,99326.94
2023-03-04T16:18:50.605Z,99325.56
2023-03-04T16:21:25.702Z,99318.31
2023-03-04T16:23:54.710Z,99324.66
2023-03-04T16:26:24.949Z,99326.19
2023-03-04T16:28:55.378Z,99329.69
2023-03-04T16:31:45.253Z,99324.50
2023-03-04T16:34:15.572Z,99323.09
2023-03-04T16:36:43.711Z,99331.09
2023-03-04T16:39:21.703Z,99324.94
2023-03-04T16:41:50.593Z,99334.38
2023-03-04T16:44:19.659Z,99338.69
2023-03-04T16:46:49.894Z,99342.06
2023-03-04T16:49:19.192Z,99340.88
2023-03-04T16:51:51.785Z,99340.53
2023-03-04T16:54:29.138Z,99335.75
2023-03-04T16:56:59.302Z,99332.81
2023-03-04T16:59:29.752Z,99334.81
2023-03-04T17:01:59.216Z,99333.16
2023-03-04T17:04:30.798Z,99336.38
2023-03-04T17:06:58.549Z,99336.22
2023-03-04T17:09:29.407Z,99337.78
2023-03-04T17:12:00.071Z,99333.59
2023-03-04T17:14:29.010Z,99347.19
2023-03-04T17:16:56.589Z,99341.31
2023-03-04T17:19:24.186Z,99343.78
2023-03-04T17:21:54.355Z,99349.50
2023-03-04T17:24:22.279Z,99343.78
2023-03-04T17:26:50.723Z,99343.00
2023-03-04T17:29:18.399Z,99344.41
2023-03-04T17:31:50.332Z,99337.44
2023-03-04T17:34:19.870Z,99347.00
2023-03-04T17:36:50.529Z,99331.59
2023-03-04T17:39:18.620Z,99337.16
2023-03-04T17:41:51.775Z,99338.84
2023-03-04T17:44:24.089Z,99339.16
2023-03-04T17:46:52.321Z,99345.63
2023-03-04T17:49:22.071Z,99334.06
2023-03-04T17:52:11.398Z,99336.03
2023-03-04T17:54:40.008Z,99338.66
2023-03-04T17:57:27.756Z,99333.56
2023-03-04T17:59:56.915Z,99339.91
2023-03-04T18:02:25.989Z,99333.59
2023-03-04T18:04:53.598Z,99334.84
2023-03-04T18:07:22.721Z,99339.13
2023-03-04T18:09:59.019Z,99331.53
2023-03-04T18:12:27.349Z,99334.81
2023-03-04T18:14:54.916Z,99329.84
2023-03-04T18:17:22.500Z,99329.25
2023-03-04T18:19:50.041Z,99338.50
2023-03-04T18:22:17.884Z,99334.50
2023-03-04T18:24:45.430Z,99325.72
2023-03-04T18:27:13.380Z,99330.78
2023-03-04T18:29:41.127Z,99339.09
2023-03-04T18:32:08.749Z,99332.59
2023-03-04T18:34:37.116Z,99336.91
2023-03-04T18:37:06.007Z,99325.84
2023-03-04T18:39:33.989Z,99330.63
2023-03-04T18:42:04.529Z,99334.63
2023-03-04T18:44:33.033Z,99325.19
2023-03-04T18:47:00.638Z,99319.50
2023-03-04T18:49:28.249Z,99327.34
2023-03-04T18:51:55.723Z,99326.56
2023-03-04T18:54:23.152Z,99329.47
2023-03-04T18:57:03.752Z,99328.22
2023-03-04T18:59:49.049Z,99330.06
2023-03-04T19:02:27.174Z,99326.69
2023-03-04T19:04:57.628Z,99329.34
2023-03-04T19:07:46.527Z,99325.66
2023-03-04T19:10:14.260Z,99333.38
2023-03-04T19:12:44.264Z,99330.88
2023-03-04T19:15:17.048Z,99330.28
2023-03-04T19:17:46.188Z,99323.81
2023-03-04T19:20:15.670Z,99324.09
2023-03-04T19:22:44.316Z,99333.34
2023-03-04T19:25:13.258Z,99321.00
2023-03-04T19:27:40.977Z,99321.91
2023-03-04T19:30:09.423Z,99315.91
2023-03-04T19:32:37.555Z,99313.72
2023-03-04T19:35:11.158Z,99315.56
2023-03-04T19:37:39.684Z,99309.06
2023-03-04T19:40:10.473Z,99307.34
2023-03-04T19:42:41.073Z,99313.66
2023-03-04T19:45:11.802Z,99321.72
2023-03-04T19:47:43.303Z,99323.44
2023-03-04T19:50:14.150Z,99324.22
2023-03-04T19:52:43.427Z,99324.84
2023-03-04T19:55:14.889Z,99318.97
2023-03-04T19:57:42.708Z,99315.88
2023-03-04T20:00:12.706Z,99317.97
2023-03-04T20:02:43.869Z,99311.63
2023-03-04T20:05:12.672Z,99317.41
2023-03-04T20:07:44.712Z,99311.84
2023-03-04T20:10:34.500Z,99307.84
2023-03-04T20:13:03.829Z,99313.25
2023-03-04T20:15:41.872Z,99306.44
2023-03-04T20:18:10.784Z,99312.38
2023-03-04T20:20:40.324Z,99302.03
2023-03-04T20:23:13.445Z,99306.81
2023-03-04T20:25:44.902Z,99301.41
2023-03-04T20:28:15.576Z,99298.16
2023-03-04T20:30:43.366Z,99291.34
2023-03-04T20:33:14.255Z,99293.34
2023-03-04T20:35:43.620Z,99291.63
2023-03-04T20:38:11.502Z,99289.72
2023-03-04T20:40:40.521Z,99291.09
2023-03-04T20:43:08.265Z,99287.34
2023-03-04T20:45:37.328Z,99287.09
2023-03-04T20:48:05.209Z,99290.84
2023-03-04T20:50:32.714Z,99296.50
2023-03-04T20:53:00.665Z,99288.66
2023-03-04T20:55:28.336Z,99288.63
2023-03-04T20:57:55.861Z,99278.31
2023-03-04T21:00:23.617Z,99280.78
2023-03-04T21:02:51.124Z,99268.84
2023-03-04T21:05:20.351Z,99270.91
2023-03-04T21:07:48.708Z,99278.72
2023-03-04T21:10:19.495Z,99274.66
2023-03-04T21:12:48.593Z,99272.16
2023-03-04T21:15:16.759Z,99277.47
2023-03-04T21:17:44.439Z,99265.44
2023-03-04T21:20:17.599Z,99273.94
2023-03-04T21:22:45.120Z,99273.53
2023-03-04T21:25:16.272Z,99270.94
2023-03-04T21:27:44.911Z,99269.88
2023-03-04T21:30:19.491Z,99268.34
2023-03-04T21:32:59.121Z,99263.03
2023-03-04T21:35:27.571Z,99264.06
2023-03-04T21:38:02.247Z,99266.91
2023-03-04T21:40:32.052Z,99260.91
2023-03-04T21:43:00.110Z,99259.00
2023-03-04T21:45:27.612Z,99251.66
2023-03-04T21:47:55.067Z,99253.66
2023-03-04T21:50:22.588Z,99242.06
2023-03-04T21:52:50.055Z,99246.91
2023-03-04T21:55:17.601Z,99244.22
2023-03-04T21:57:45.305Z,99237.59
2023-03-04T22:00:19.260Z,99237.59
2023-03-04T22:02:46.762Z,99234.69
2023-03-04T22:05:14.351Z,99237.31
2023-03-04T22:07:42.181Z,99241.56
2023-03-04T22:10:10.579Z,99243.34
2023-03-04T22:12:38.157Z,99230.34
2023-03-04T22:15:06.446Z,99236.78
2023-03-04T22:17:35.129Z,99235.69
2023-03-04T22:20:02.771Z,99241.00
2023-03-04T22:22:31.060Z,99237.44
2023-03-04T22:25:00.271Z,99246.03
2023-03-04T22:27:27.956Z,99229.88
2023-03-04T22:29:57.104Z,99235.66
2023-03-04T22:32:24.592Z,99225.47
2023-03-04T22:34:52.326Z,99221.31
2023-03-04T22:37:19.776Z,99220.44
2023-03-04T22:39:47.236Z,99220.47
2023-03-04T22:42:14.739Z,99212.59
2023-03-04T22:44:42.197Z,99216.63
2023-03-04T22:47:15.212Z,99215.78
2023-03-04T22:49:42.874Z,99216.03
2023-03-04T22:52:10.408Z,99214.63
2023-03-04T22:54:37.864Z,99211.94
2023-03-04T22:57:05.374Z,99211.78
2023-03-04T22:59:37.369Z,99210.59
2023-03-04T23:02:05.260Z,99208.41
2023-03-04T23:04:33.213Z,99208.31
2023-03-04T23:07:00.733Z,99205.72
2023-03-04T23:09:28.274Z,99205.84
2023-03-04T23:11:55.810Z,99213.75
2023-03-04T23:14:23.404Z,99205.81
2023-03-04T23:16:51.042Z,99209.34
2023-03-04T23:19:18.720Z,99204.88
2023-03-04T23:21:46.565Z,99208.41
2023-03-04T23:24:14.313Z,99214.75
2023-03-04T23:26:44.334Z,99215.63
2023-03-04T23:29:16.337Z,99203.59
2023-03-04T23:31:44.646Z,99213.66
2023-03-04T23:34:12.951Z,99213.94
2023-03-04T23:36:41.341Z,99213.81
2023-03-04T23:39:10.177Z,99219.38
2023-03-04T23:41:38.662Z,99216.97
2023-03-04T23:44:08.543Z,99218.19
2023-03-04T23:46:39.263Z,99217.75
2023-03-04T23:49:08.672Z,99221.69
2023-03-04T23:51:37.018Z,99210.72
2023-03-04T23:54:05.529Z,99214.47
2023-03-04T23:56:33.256Z,99210.00
2023-03-04T23:59:01.347Z,99206.13
